sensor_id;sensor_type;location;lat;lon;timestamp;pressure;altitude;pressure_sealevel;temperature;humidity
30730;BME280;17476;48.458;7.928;2023-09-18T00:00:51;99252.03;;;22.58;71.88
30730;BME280;17476;48.458;7.928;2023-09-18T00:03:21;99236.31;;;22.56;72.22
30730;BME280;17476;48.458;7.928;2023-09-18T00:05:51;99239.22;;;22.55;73.17
30730;BME280;17476;48.458;7.928;2023-09-18T00:08:18;99241.84;;;22.45;73.41
30730;BME280;17476;48.458;7.928;2023-09-18T00:10:50;99239.91;;;22.35;73.56
30730;BME280;17476;48.458;7.928;2023-09-18T00:13:16;99239.41;;;22.38;74.20
30730;BME280;17476;48.458;7.928;2023-09-18T00:15:42;99238.34;;;22.39;73.68
30730;BME280;17476;48.458;7.928;2023-09-18T00:18:10;99240.81;;;22.51;73.26
30730;BME280;17476;48.458;7.928;2023-09-18T00:20:36;99243.00;;;22.64;73.66
30730;BME280;17476;48.458;7.928;2023-09-18T00:23:02;99255.84;;;22.72;73.00
30730;BME280;17476;48.458;7.928;2023-09-18T00:25:28;99270.28;;;22.34;74.53
30730;BME280;17476;48.458;7.928;2023-09-18T00:27:54;99262.59;;;22.38;73.79
30730;BME280;17476;48.458;7.928;2023-09-18T00:30:19;99264.72;;;22.41;73.93
30730;BME280;17476;48.458;7.928;2023-09-18T00:32:45;99262.97;;;22.56;73.88
30730;BME280;17476;48.458;7.928;2023-09-18T00:35:12;99256.31;;;22.59;74.40
30730;BME280;17476;48.458;7.928;2023-09-18T00:37:38;99257.41;;;22.68;74.20
30730;BME280;17476;48.458;7.928;2023-09-18T00:40:06;99264.34;;;22.69;73.71
30730;BME280;17476;48.458;7.928;2023-09-18T00:42:32;99268.31;;;22.56;71.98
30730;BME280;17476;48.458;7.928;2023-09-18T00:44:58;99269.03;;;22.47;72.53
30730;BME280;17476;48.458;7.928;2023-09-18T00:47:24;99272.63;;;22.25;73.67
30730;BME280;17476;48.458;7.928;2023-09-18T00:49:51;99283.09;;;22.37;73.72
30730;BME280;17476;48.458;7.928;2023-09-18T00:52:19;99282.84;;;22.39;78.84
30730;BME280;17476;48.458;7.928;2023-09-18T00:54:47;99251.53;;;22.19;85.85
30730;BME280;17476;48.458;7.928;2023-09-18T00:57:13;99252.59;;;21.86;89.75
30730;BME280;17476;48.458;7.928;2023-09-18T00:59:39;99251.34;;;21.61;92.85
30730;BME280;17476;48.458;7.928;2023-09-18T01:02:06;99243.78;;;21.53;96.73
30730;BME280;17476;48.458;7.928;2023-09-18T01:04:33;99246.44;;;21.53;100.00
30730;BME280;17476;48.458;7.928;2023-09-18T01:07:00;99257.47;;;21.62;95.01
30730;BME280;17476;48.458;7.928;2023-09-18T01:09:30;99268.91;;;21.62;96.54
30730;BME280;17476;48.458;7.928;2023-09-18T01:12:11;99277.22;;;21.71;90.17
30730;BME280;17476;48.458;7.928;2023-09-18T01:17:37;99285.69;;;21.95;90.82
30730;BME280;17476;48.458;7.928;2023-09-18T01:20:04;99292.91;;;21.99;92.76
30730;BME280;17476;48.458;7.928;2023-09-18T01:22:31;99316.44;;;21.80;91.44
30730;BME280;17476;48.458;7.928;2023-09-18T01:24:57;99322.63;;;21.86;92.81
30730;BME280;17476;48.458;7.928;2023-09-18T01:27:23;99322.66;;;21.91;95.64
30730;BME280;17476;48.458;7.928;2023-09-18T01:29:49;99313.06;;;21.90;95.65
30730;BME280;17476;48.458;7.928;2023-09-18T01:32:15;99320.63;;;21.71;99.63
30730;BME280;17476;48.458;7.928;2023-09-18T01:34:49;99333.88;;;21.66;94.40
30730;BME280;17476;48.458;7.928;2023-09-18T01:37:18;99335.78;;;21.71;93.83
30730;BME280;17476;48.458;7.928;2023-09-18T01:39:48;99319.28;;;21.69;93.61
30730;BME280;17476;48.458;7.928;2023-09-18T01:42:14;99312.94;;;21.75;97.76
30730;BME280;17476;48.458;7.928;2023-09-18T01:44:42;99323.41;;;21.87;100.00
30730;BME280;17476;48.458;7.928;2023-09-18T01:47:15;99338.34;;;21.88;100.00
30730;BME280;17476;48.458;7.928;2023-09-18T01:49:42;99345.31;;;21.94;97.33
30730;BME280;17476;48.458;7.928;2023-09-18T01:52:08;99346.97;;;22.00;98.50
30730;BME280;17476;48.458;7.928;2023-09-18T01:54:35;99340.75;;;21.89;99.69
30730;BME280;17476;48.458;7.928;2023-09-18T01:57:04;99347.34;;;21.55;96.78
30730;BME280;17476;48.458;7.928;2023-09-18T01:59:30;99350.81;;;21.55;100.00
30730;BME280;17476;48.458;7.928;2023-09-18T02:01:56;99349.84;;;21.66;98.46
30730;BME280;17476;48.458;7.928;2023-09-18T02:04:22;99330.97;;;21.68;96.58
30730;BME280;17476;48.458;7.928;2023-09-18T02:06:50;99298.66;;;21.59;99.51
30730;BME280;17476;48.458;7.928;2023-09-18T02:09:16;99266.91;;;21.74;100.00
30730;BME280;17476;48.458;7.928;2023-09-18T02:11:46;99263.19;;;21.80;100.00
30730;BME280;17476;48.458;7.928;2023-09-18T02:14:12;99288.19;;;21.74;100.00
30730;BME280;17476;48.458;7.928;2023-09-18T02:16:40;99317.94;;;21.44;100.00
30730;BME280;17476;48.458;7.928;2023-09-18T02:19:08;99337.41;;;21.06;100.00
30730;BME280;17476;48.458;7.928;2023-09-18T02:21:35;99332.69;;;20.91;100.00
30730;BME280;17476;48.458;7.928;2023-09-18T02:24:01;99329.69;;;21.05;100.00
30730;BME280;17476;48.458;7.928;2023-09-18T02:26:28;99321.22;;;21.08;100.00
30730;BME280;17476;48.458;7.928;2023-09-18T02:28:55;99311.94;;;20.88;100.00
30730;BME280;17476;48.458;7.928;2023-09-18T02:31:21;99312.81;;;20.94;100.00
30730;BME280;17476;48.458;7.928;2023-09-18T02:33:48;99314.31;;;21.07;100.00
30730;BME280;17476;48.458;7.928;2023-09-18T02:36:14;99311.56;;;21.23;100.00
30730;BME280;17476;48.458;7.928;2023-09-18T02:38:40;99306.38;;;21.34;100.00
30730;BME280;17476;48.458;7.928;2023-09-18T02:41:06;99317.34;;;21.15;100.00
30730;BME280;17476;48.458;7.928;2023-09-18T02:43:31;99335.94;;;21.15;100.00
30730;BME280;17476;48.458;7.928;2023-09-18T02:45:57;99334.38;;;21.19;100.00
30730;BME280;17476;48.458;7.928;2023-09-18T02:48:23;99359.63;;;20.95;100.00
30730;BME280;17476;48.458;7.928;2023-09-18T02:50:49;99386.31;;;21.05;100.00
30730;BME280;17476;48.458;7.928;2023-09-18T02:53:20;99478.97;;;20.46;100.00
30730;BME280;17476;48.458;7.928;2023-09-18T02:55:53;99517.03;;;20.23;100.00
30730;BME280;17476;48.458;7.928;2023-09-18T02:58:20;99552.22;;;19.90;100.00
30730;BME280;17476;48.458;7.928;2023-09-18T03:00:49;99546.13;;;19.54;100.00
30730;BME280;17476;48.458;7.928;2023-09-18T03:03:16;99532.28;;;19.52;100.00
30730;BME280;17476;48.458;7.928;2023-09-18T03:05:43;99520.88;;;19.52;100.00
30730;BME280;17476;48.458;7.928;2023-09-18T03:08:13;99510.72;;;19.49;100.00
30730;BME280;17476;48.458;7.928;2023-09-18T03:10:40;99497.56;;;19.54;100.00
30730;BME280;17476;48.458;7.928;2023-09-18T03:13:09;99457.69;;;19.60;100.00
30730;BME280;17476;48.458;7.928;2023-09-18T03:15:35;99441.88;;;19.66;100.00
30730;BME280;17476;48.458;7.928;2023-09-18T03:18:02;99439.13;;;19.60;100.00
30730;BME280;17476;48.458;7.928;2023-09-18T03:20:29;99431.59;;;19.69;100.00
30730;BME280;17476;48.458;7.928;2023-09-18T03:22:58;99433.31;;;19.63;100.00
30730;BME280;17476;48.458;7.928;2023-09-18T03:25:25;99416.09;;;19.78;100.00
30730;BME280;17476;48.458;7.928;2023-09-18T03:27:55;99409.63;;;19.85;100.00
30730;BME280;17476;48.458;7.928;2023-09-18T03:30:23;99412.75;;;19.82;100.00
30730;BME280;17476;48.458;7.928;2023-09-18T03:32:52;99403.28;;;19.86;100.00
30730;BME280;17476;48.458;7.928;2023-09-18T03:35:19;99388.28;;;19.80;100.00
30730;BME280;17476;48.458;7.928;2023-09-18T03:37:50;99366.66;;;19.88;100.00
30730;BME280;17476;48.458;7.928;2023-09-18T03:40:18;99338.28;;;19.89;100.00
30730;BME280;17476;48.458;7.928;2023-09-18T03:42:45;99334.03;;;19.88;100.00
30730;BME280;17476;48.458;7.928;2023-09-18T03:45:11;99318.44;;;19.92;100.00
30730;BME280;17476;48.458;7.928;2023-09-18T03:47:39;99302.91;;;20.00;100.00
30730;BME280;17476;48.458;7.928;2023-09-18T03:50:09;99298.72;;;20.04;100.00
30730;BME280;17476;48.458;7.928;2023-09-18T03:52:36;99297.69;;;20.05;100.00
30730;BME280;17476;48.458;7.928;2023-09-18T03:55:02;99296.25;;;20.14;100.00
30730;BME280;17476;48.458;7.928;2023-09-18T03:57:28;99291.50;;;20.00;100.00
30730;BME280;17476;48.458;7.928;2023-09-18T03:59:54;99274.75;;;19.82;100.00
30730;BME280;17476;48.458;7.928;2023-09-18T04:02:23;99271.38;;;19.87;100.00
30730;BME280;17476;48.458;7.928;2023-09-18T04:04:49;99265.19;;;19.81;100.00
30730;BME280;17476;48.458;7.928;2023-09-18T04:07:15;99233.19;;;19.88;100.00
30730;BME280;17476;48.458;7.928;2023-09-18T04:09:42;99217.81;;;19.90;100.00
30730;BME280;17476;48.458;7.928;2023-09-18T04:12:08;99215.75;;;19.92;100.00
30730;BME280;17476;48.458;7.928;2023-09-18T04:14:35;99224.06;;;19.84;100.00
30730;BME280;17476;48.458;7.928;2023-09-18T04:17:01;99217.03;;;19.73;100.00
30730;BME280;17476;48.458;7.928;2023-09-18T04:19:27;99235.25;;;19.69;100.00
30730;BME280;17476;48.458;7.928;2023-09-18T04:21:53;99257.78;;;19.67;100.00
30730;BME280;17476;48.458;7.928;2023-09-18T04:24:19;99259.88;;;19.81;100.00
30730;BME280;17476;48.458;7.928;2023-09-18T04:26:44;99261.47;;;19.82;100.00
30730;BME280;17476;48.458;7.928;2023-09-18T04:29:10;99269.53;;;19.87;100.00
30730;BME280;17476;48.458;7.928;2023-09-18T04:31:36;99259.88;;;19.98;100.00
30730;BME280;17476;48.458;7.928;2023-09-18T04:34:03;99277.59;;;19.93;100.00
30730;BME280;17476;48.458;7.928;2023-09-18T04:36:29;99286.41;;;19.98;100.00
30730;BME280;17476;48.458;7.928;2023-09-18T04:38:55;99295.03;;;20.05;100.00
30730;BME280;17476;48.458;7.928;2023-09-18T04:41:21;99294.53;;;20.08;100.00
30730;BME280;17476;48.458;7.928;2023-09-18T04:43:47;99283.44;;;20.11;100.00
30730;BME280;17476;48.458;7.928;2023-09-18T04:46:12;99261.00;;;20.19;100.00
30730;BME280;17476;48.458;7.928;2023-09-18T04:48:38;99249.75;;;20.12;100.00
30730;BME280;17476;48.458;7.928;2023-09-18T04:51:04;99246.44;;;20.22;100.00
30730;BME280;17476;48.458;7.928;2023-09-18T04:53:32;99247.91;;;20.12;100.00
30730;BME280;17476;48.458;7.928;2023-09-18T04:55:58;99261.00;;;20.02;100.00
30730;BME280;17476;48.458;7.928;2023-09-18T04:58:24;99263.56;;;20.14;100.00
30730;BME280;17476;48.458;7.928;2023-09-18T05:00:57;99260.19;;;20.18;100.00
30730;BME280;17476;48.458;7.928;2023-09-18T05:03:23;99266.44;;;20.29;100.00
30730;BME280;17476;48.458;7.928;2023-09-18T05:05:49;99260.84;;;20.26;100.00
30730;BME280;17476;48.458;7.928;2023-09-18T05:08:15;99256.50;;;20.03;100.00
30730;BME280;17476;48.458;7.928;2023-09-18T05:10:41;99274.38;;;20.07;100.00
30730;BME280;17476;48.458;7.928;2023-09-18T05:13:08;99277.09;;;20.12;100.00
30730;BME280;17476;48.458;7.928;2023-09-18T05:15:34;99289.94;;;20.04;100.00
30730;BME280;17476;48.458;7.928;2023-09-18T05:18:01;99265.34;;;20.08;100.00
30730;BME280;17476;48.458;7.928;2023-09-18T05:20:28;99257.63;;;20.07;100.00
30730;BME280;17476;48.458;7.928;2023-09-18T05:22:55;99253.22;;;20.12;100.00
30730;BME280;17476;48.458;7.928;2023-09-18T05:25:23;99257.59;;;20.24;100.00
30730;BME280;17476;48.458;7.928;2023-09-18T05:27:51;99260.84;;;20.26;100.00
30730;BME280;17476;48.458;7.928;2023-09-18T05:30:26;99277.41;;;20.16;100.00
30730;BME280;17476;48.458;7.928;2023-09-18T05:32:57;99280.53;;;20.30;100.00
30730;BME280;17476;48.458;7.928;2023-09-18T05:35:23;99298.00;;;20.42;100.00
30730;BME280;17476;48.458;7.928;2023-09-18T05:37:51;99304.97;;;20.32;100.00
30730;BME280;17476;48.458;7.928;2023-09-18T05:40:18;99302.81;;;20.29;100.00
30730;BME280;17476;48.458;7.928;2023-09-18T05:42:44;99313.78;;;20.32;100.00
30730;BME280;17476;48.458;7.928;2023-09-18T05:45:12;99308.16;;;20.29;100.00
30730;BME280;17476;48.458;7.928;2023-09-18T05:47:38;99312.97;;;20.32;100.00
30730;BME280;17476;48.458;7.928;2023-09-18T05:50:06;99307.91;;;20.30;100.00
30730;BME280;17476;48.458;7.928;2023-09-18T05:52:33;99319.00;;;20.27;100.00
30730;BME280;17476;48.458;7.928;2023-09-18T05:55:00;99329.56;;;20.39;100.00
30730;BME280;17476;48.458;7.928;2023-09-18T05:57:26;99323.19;;;20.57;100.00
30730;BME280;17476;48.458;7.928;2023-09-18T05:59:57;99339.38;;;20.55;100.00
30730;BME280;17476;48.458;7.928;2023-09-18T06:02:23;99347.91;;;20.57;100.00
30730;BME280;17476;48.458;7.928;2023-09-18T06:04:58;99343.84;;;20.38;100.00
30730;BME280;17476;48.458;7.928;2023-09-18T06:07:29;99351.91;;;20.43;100.00
30730;BME280;17476;48.458;7.928;2023-09-18T06:09:56;99347.56;;;20.37;100.00
30730;BME280;17476;48.458;7.928;2023-09-18T06:12:22;99349.50;;;20.25;100.00
30730;BME280;17476;48.458;7.928;2023-09-18T06:14:49;99362.63;;;20.14;100.00
30730;BME280;17476;48.458;7.928;2023-09-18T06:17:15;99373.00;;;20.16;100.00
30730;BME280;17476;48.458;7.928;2023-09-18T06:19:42;99382.31;;;20.18;100.00
30730;BME280;17476;48.458;7.928;2023-09-18T06:22:08;99397.22;;;20.20;100.00
30730;BME280;17476;48.458;7.928;2023-09-18T06:24:34;99374.75;;;20.10;100.00
30730;BME280;17476;48.458;7.928;2023-09-18T06:27:00;99380.41;;;20.14;100.00
30730;BME280;17476;48.458;7.928;2023-09-18T06:29:26;99392.22;;;20.06;100.00
30730;BME280;17476;48.458;7.928;2023-09-18T06:31:52;99401.03;;;19.95;100.00
30730;BME280;17476;48.458;7.928;2023-09-18T06:34:18;99405.84;;;19.98;100.00
30730;BME280;17476;48.458;7.928;2023-09-18T06:36:46;99397.44;;;20.01;100.00
30730;BME280;17476;48.458;7.928;2023-09-18T06:39:12;99405.56;;;20.11;100.00
30730;BME280;17476;48.458;7.928;2023-09-18T06:41:38;99420.06;;;20.21;100.00
30730;BME280;17476;48.458;7.928;2023-09-18T06:44:03;99425.69;;;20.07;100.00
30730;BME280;17476;48.458;7.928;2023-09-18T06:46:30;99423.16;;;20.01;100.00
30730;BME280;17476;48.458;7.928;2023-09-18T06:48:56;99434.50;;;19.96;100.00
30730;BME280;17476;48.458;7.928;2023-09-18T06:51:23;99433.03;;;19.88;100.00
30730;BME280;17476;48.458;7.928;2023-09-18T06:53:48;99436.91;;;19.98;100.00
30730;BME280;17476;48.458;7.928;2023-09-18T06:56:14;99434.88;;;19.88;100.00
30730;BME280;17476;48.458;7.928;2023-09-18T06:58:40;99432.47;;;19.86;100.00
30730;BME280;17476;48.458;7.928;2023-09-18T07:01:06;99433.06;;;19.77;100.00
30730;BME280;17476;48.458;7.928;2023-09-18T07:03:33;99425.34;;;19.75;100.00
30730;BME280;17476;48.458;7.928;2023-09-18T07:06:01;99440.31;;;19.81;100.00
30730;BME280;17476;48.458;7.928;2023-09-18T07:08:26;99443.91;;;19.75;100.00
30730;BME280;17476;48.458;7.928;2023-09-18T07:10:52;99449.69;;;19.72;100.00
30730;BME280;17476;48.458;7.928;2023-09-18T07:13:18;99467.09;;;19.80;100.00
30730;BME280;17476;48.458;7.928;2023-09-18T07:15:43;99466.44;;;19.73;100.00
30730;BME280;17476;48.458;7.928;2023-09-18T07:18:10;99455.19;;;19.82;100.00
30730;BME280;17476;48.458;7.928;2023-09-18T07:20:40;99449.09;;;19.82;100.00
30730;BME280;17476;48.458;7.928;2023-09-18T07:23:07;99445.72;;;19.86;100.00
30730;BME280;17476;48.458;7.928;2023-09-18T07:25:33;99437.03;;;19.91;100.00
30730;BME280;17476;48.458;7.928;2023-09-18T07:27:58;99448.19;;;20.05;100.00
30730;BME280;17476;48.458;7.928;2023-09-18T07:30:25;99450.25;;;19.86;100.00
30730;BME280;17476;48.458;7.928;2023-09-18T07:32:55;99448.50;;;19.92;100.00
30730;BME280;17476;48.458;7.928;2023-09-18T07:35:24;99435.78;;;19.94;100.00
30730;BME280;17476;48.458;7.928;2023-09-18T07:37:51;99429.19;;;19.96;100.00
30730;BME280;17476;48.458;7.928;2023-09-18T07:40:16;99426.38;;;20.03;100.00
30730;BME280;17476;48.458;7.928;2023-09-18T07:42:42;99420.66;;;19.94;100.00
30730;BME280;17476;48.458;7.928;2023-09-18T07:45:10;99421.41;;;20.06;100.00
30730;BME280;17476;48.458;7.928;2023-09-18T07:47:36;99421.19;;;20.25;100.00
30730;BME280;17476;48.458;7.928;2023-09-18T07:50:02;99451.00;;;20.27;100.00
30730;BME280;17476;48.458;7.928;2023-09-18T07:52:29;99430.84;;;20.14;100.00
30730;BME280;17476;48.458;7.928;2023-09-18T07:54:56;99440.03;;;20.23;100.00
30730;BME280;17476;48.458;7.928;2023-09-18T07:57:23;99426.59;;;20.30;100.00
30730;BME280;17476;48.458;7.928;2023-09-18T07:59:50;99438.75;;;20.26;100.00
30730;BME280;17476;48.458;7.928;2023-09-18T08:02:16;99435.75;;;20.22;100.00
30730;BME280;17476;48.458;7.928;2023-09-18T08:04:43;99433.50;;;20.14;100.00
30730;BME280;17476;48.458;7.928;2023-09-18T08:07:09;99443.91;;;20.04;100.00
30730;BME280;17476;48.458;7.928;2023-09-18T08:09:36;99429.56;;;20.16;100.00
30730;BME280;17476;48.458;7.928;2023-09-18T08:12:08;99421.13;;;20.36;100.00
30730;BME280;17476;48.458;7.928;2023-09-18T08:14:34;99413.59;;;20.45;100.00
30730;BME280;17476;48.458;7.928;2023-09-18T08:17:03;99408.13;;;20.52;100.00
30730;BME280;17476;48.458;7.928;2023-09-18T08:19:30;99414.66;;;20.61;100.00
30730;BME280;17476;48.458;7.928;2023-09-18T08:22:01;99419.41;;;20.59;100.00
30730;BME280;17476;48.458;7.928;2023-09-18T08:24:27;99417.47;;;20.54;100.00
30730;BME280;17476;48.458;7.928;2023-09-18T08:26:53;99414.97;;;20.64;100.00
30730;BME280;17476;48.458;7.928;2023-09-18T08:29:19;99410.16;;;20.61;100.00
30730;BME280;17476;48.458;7.928;2023-09-18T08:31:49;99412.00;;;20.61;100.00
30730;BME280;17476;48.458;7.928;2023-09-18T08:34:16;99434.94;;;20.50;100.00
30730;BME280;17476;48.458;7.928;2023-09-18T08:36:42;99448.59;;;20.42;100.00
30730;BME280;17476;48.458;7.928;2023-09-18T08:39:08;99452.84;;;20.43;100.00
30730;BME280;17476;48.458;7.928;2023-09-18T08:41:43;99464.44;;;20.37;100.00
30730;BME280;17476;48.458;7.928;2023-09-18T08:44:09;99489.38;;;20.36;100.00
30730;BME280;17476;48.458;7.928;2023-09-18T08:46:37;99506.66;;;20.22;100.00
30730;BME280;17476;48.458;7.928;2023-09-18T08:49:05;99507.88;;;20.31;100.00
30730;BME280;17476;48.458;7.928;2023-09-18T08:51:33;99470.34;;;20.39;100.00
30730;BME280;17476;48.458;7.928;2023-09-18T08:54:00;99473.13;;;20.32;100.00
30730;BME280;17476;48.458;7.928;2023-09-18T08:56:29;99474.81;;;20.38;100.00
30730;BME280;17476;48.458;7.928;2023-09-18T08:58:56;99477.00;;;20.41;100.00
30730;BME280;17476;48.458;7.928;2023-09-18T09:01:23;99465.09;;;20.44;100.00
30730;BME280;17476;48.458;7.928;2023-09-18T09:03:49;99456.13;;;20.62;100.00
30730;BME280;17476;48.458;7.928;2023-09-18T09:06:16;99440.50;;;20.65;100.00
30730;BME280;17476;48.458;7.928;2023-09-18T09:08:42;99431.50;;;20.66;100.00
30730;BME280;17476;48.458;7.928;2023-09-18T09:11:08;99438.97;;;20.86;100.00
30730;BME280;17476;48.458;7.928;2023-09-18T09:13:34;99442.28;;;20.93;100.00
30730;BME280;17476;48.458;7.928;2023-09-18T09:16:00;99433.56;;;20.98;100.00
30730;BME280;17476;48.458;7.928;2023-09-18T09:18:29;99437.81;;;20.99;100.00
30730;BME280;17476;48.458;7.928;2023-09-18T09:21:02;99440.56;;;21.04;100.00
30730;BME280;17476;48.458;7.928;2023-09-18T09:23:50;99440.97;;;20.96;98.78
30730;BME280;17476;48.458;7.928;2023-09-18T09:26:19;99436.88;;;20.88;99.80
30730;BME280;17476;48.458;7.928;2023-09-18T09:28:46;99442.28;;;20.93;98.30
30730;BME280;17476;48.458;7.928;2023-09-18T09:31:26;99452.97;;;20.98;98.96
30730;BME280;17476;48.458;7.928;2023-09-18T09:33:54;99452.84;;;21.27;100.00
30730;BME280;17476;48.458;7.928;2023-09-18T09:36:21;99460.69;;;21.17;100.00
30730;BME280;17476;48.458;7.928;2023-09-18T09:38:47;99452.28;;;21.25;100.00
30730;BME280;17476;48.458;7.928;2023-09-18T09:41:14;99451.03;;;21.11;99.12
30730;BME280;17476;48.458;7.928;2023-09-18T09:43:42;99464.66;;;21.14;100.00
30730;BME280;17476;48.458;7.928;2023-09-18T09:46:16;99452.19;;;21.20;97.77
30730;BME280;17476;48.458;7.928;2023-09-18T09:49:04;99465.63;;;21.08;95.81
30730;BME280;17476;48.458;7.928;2023-09-18T09:51:31;99469.00;;;21.20;93.43
30730;BME280;17476;48.458;7.928;2023-09-18T09:53:57;99448.69;;;21.14;93.22
30730;BME280;17476;48.458;7.928;2023-09-18T09:56:48;99442.41;;;21.04;93.25
30730;BME280;17476;48.458;7.928;2023-09-18T09:59:17;99444.88;;;21.27;90.51
30730;BME280;17476;48.458;7.928;2023-09-18T10:01:47;99438.03;;;21.31;91.84
30730;BME280;17476;48.458;7.928;2023-09-18T10:04:17;99437.31;;;21.36;91.20
30730;BME280;17476;48.458;7.928;2023-09-18T10:06:47;99439.91;;;21.52;91.17
30730;BME280;17476;48.458;7.928;2023-09-18T10:09:14;99434.66;;;21.36;89.92
30730;BME280;17476;48.458;7.928;2023-09-18T10:11:45;99428.81;;;21.39;87.60
30730;BME280;17476;48.458;7.928;2023-09-18T10:14:30;99411.13;;;21.49;88.60
30730;BME280;17476;48.458;7.928;2023-09-18T10:17:15;99414.16;;;21.36;86.77
30730;BME280;17476;48.458;7.928;2023-09-18T10:22:31;99421.16;;;21.42;85.62
30730;BME280;17476;48.458;7.928;2023-09-18T10:25:20;99422.81;;;21.70;84.00
30730;BME280;17476;48.458;7.928;2023-09-18T10:27:50;99411.13;;;21.98;83.20
30730;BME280;17476;48.458;7.928;2023-09-18T10:30:25;99417.66;;;21.86;81.41
30730;BME280;17476;48.458;7.928;2023-09-18T10:32:52;99424.91;;;21.90;81.98
30730;BME280;17476;48.458;7.928;2023-09-18T10:35:19;99412.47;;;22.01;82.88
30730;BME280;17476;48.458;7.928;2023-09-18T10:37:48;99412.47;;;22.23;81.38
30730;BME280;17476;48.458;7.928;2023-09-18T10:40:14;99418.81;;;22.17;81.38
30730;BME280;17476;48.458;7.928;2023-09-18T10:42:41;99419.25;;;22.36;82.11
30730;BME280;17476;48.458;7.928;2023-09-18T10:45:10;99430.84;;;22.51;82.39
30730;BME280;17476;48.458;7.928;2023-09-18T10:47:43;99433.03;;;22.59;80.71
30730;BME280;17476;48.458;7.928;2023-09-18T10:50:23;99424.19;;;22.54;81.19
30730;BME280;17476;48.458;7.928;2023-09-18T10:52:50;99418.41;;;22.30;80.79
30730;BME280;17476;48.458;7.928;2023-09-18T10:55:16;99419.53;;;22.39;82.03
30730;BME280;17476;48.458;7.928;2023-09-18T10:57:55;99417.13;;;22.75;82.28
30730;BME280;17476;48.458;7.928;2023-09-18T11:00:25;99434.19;;;23.06;78.76
30730;BME280;17476;48.458;7.928;2023-09-18T11:03:13;99426.22;;;23.16;77.63
30730;BME280;17476;48.458;7.928;2023-09-18T11:05:39;99429.03;;;23.41;78.56
30730;BME280;17476;48.458;7.928;2023-09-18T11:08:29;99426.66;;;23.45;75.47
30730;BME280;17476;48.458;7.928;2023-09-18T11:11:08;99433.19;;;23.75;77.64
30730;BME280;17476;48.458;7.928;2023-09-18T11:16:33;99449.31;;;24.10;74.39
30730;BME280;17476;48.458;7.928;2023-09-18T11:21:34;99436.28;;;24.34;76.78
30730;BME280;17476;48.458;7.928;2023-09-18T11:26:35;99437.53;;;24.01;76.42
30730;BME280;17476;48.458;7.928;2023-09-18T11:29:05;99437.28;;;24.08;72.01
30730;BME280;17476;48.458;7.928;2023-09-18T11:31:48;99434.00;;;23.80;71.34
30730;BME280;17476;48.458;7.928;2023-09-18T11:34:27;99431.09;;;23.87;72.47
30730;BME280;17476;48.458;7.928;2023-09-18T11:36:58;99431.66;;;23.94;72.10
30730;BME280;17476;48.458;7.928;2023-09-18T11:39:40;99434.59;;;23.92;71.66
30730;BME280;17476;48.458;7.928;2023-09-18T11:42:14;99428.19;;;23.99;72.11
30730;BME280;17476;48.458;7.928;2023-09-18T11:44:41;99434.56;;;23.87;71.34
30730;BME280;17476;48.458;7.928;2023-09-18T11:47:11;99436.50;;;24.07;70.40
30730;BME280;17476;48.458;7.928;2023-09-18T11:52:22;99437.31;;;24.28;71.04
30730;BME280;17476;48.458;7.928;2023-09-18T11:54:48;99431.75;;;24.35;70.00
30730;BME280;17476;48.458;7.928;2023-09-18T11:57:15;99441.38;;;24.66;68.29
30730;BME280;17476;48.458;7.928;2023-09-18T11:59:43;99436.81;;;24.77;67.66
30730;BME280;17476;48.458;7.928;2023-09-18T12:02:31;99438.13;;;24.90;65.81
30730;BME280;17476;48.458;7.928;2023-09-18T12:05:17;99432.25;;;24.77;65.05
30730;BME280;17476;48.458;7.928;2023-09-18T12:07:46;99426.13;;;24.67;65.28
30730;BME280;17476;48.458;7.928;2023-09-18T12:10:16;99430.41;;;24.63;67.00
30730;BME280;17476;48.458;7.928;2023-09-18T12:12:43;99436.25;;;24.85;64.88
30730;BME280;17476;48.458;7.928;2023-09-18T12:15:17;99433.06;;;24.83;65.48
30730;BME280;17476;48.458;7.928;2023-09-18T12:17:43;99431.75;;;24.35;66.44
30730;BME280;17476;48.458;7.928;2023-09-18T12:20:16;99413.81;;;24.76;65.72
30730;BME280;17476;48.458;7.928;2023-09-18T12:22:49;99416.47;;;25.07;65.91
30730;BME280;17476;48.458;7.928;2023-09-18T12:25:19;99422.59;;;25.17;62.71
30730;BME280;17476;48.458;7.928;2023-09-18T12:27:45;99420.19;;;24.85;65.89
30730;BME280;17476;48.458;7.928;2023-09-18T12:30:12;99421.84;;;24.81;65.05
30730;BME280;17476;48.458;7.928;2023-09-18T12:32:40;99428.28;;;24.60;66.92
30730;BME280;17476;48.458;7.928;2023-09-18T12:35:07;99417.59;;;24.39;64.90
30730;BME280;17476;48.458;7.928;2023-09-18T12:37:40;99413.84;;;24.45;65.15
30730;BME280;17476;48.458;7.928;2023-09-18T12:40:29;99406.88;;;24.60;65.49
30730;BME280;17476;48.458;7.928;2023-09-18T12:42:56;99403.41;;;24.54;64.20
30730;BME280;17476;48.458;7.928;2023-09-18T12:45:24;99397.25;;;24.43;63.83
30730;BME280;17476;48.458;7.928;2023-09-18T12:47:50;99396.16;;;24.24;65.99
30730;BME280;17476;48.458;7.928;2023-09-18T12:50:16;99394.06;;;24.41;65.75
30730;BME280;17476;48.458;7.928;2023-09-18T12:52:42;99386.53;;;24.64;65.01
30730;BME280;17476;48.458;7.928;2023-09-18T12:55:19;99398.28;;;24.88;63.27
30730;BME280;17476;48.458;7.928;2023-09-18T12:57:45;99399.31;;;25.13;61.91
30730;BME280;17476;48.458;7.928;2023-09-18T13:00:12;99389.09;;;25.20;61.02
30730;BME280;17476;48.458;7.928;2023-09-18T13:02:39;99382.44;;;25.12;60.77
30730;BME280;17476;48.458;7.928;2023-09-18T13:05:06;99384.91;;;25.68;61.27
30730;BME280;17476;48.458;7.928;2023-09-18T13:07:32;99385.59;;;26.28;58.74
30730;BME280;17476;48.458;7.928;2023-09-18T13:10:09;99379.47;;;26.57;56.39
30730;BME280;17476;48.458;7.928;2023-09-18T13:12:46;99383.72;;;26.87;58.37
30730;BME280;17476;48.458;7.928;2023-09-18T13:15:13;99367.03;;;26.66;55.92
30730;BME280;17476;48.458;7.928;2023-09-18T13:17:44;99363.31;;;26.62;56.28